Time;durP1;ratioP1;P1;durP2;ratioP2;P2;SDS_P1;SDS_P2;PMS_P1;PMS_P2;Temp;Humidity;BMP_temperature;BMP_pressure;BME280_temperature;BME280_humidity;BME280_pressure;Samples;Min_cycle;Max_cycle;Signal;HPM_P1;HPM_P2
2022/05/10 00:00:54;;;;;;;8.73;8.03;;;16.60;99.90;;;;;;5069310;28;20419;-41
2022/05/10 00:03:21;;;;;;;9.93;8.10;;;16.70;99.90;;;;;;5068318;28;20419;-40
2022/05/10 00:05:47;;;;;;;9.10;8.30;;;16.70;99.90;;;;;;5070119;28;20415;-42
2022/05/10 00:08:16;;;;;;;8.63;7.93;;;16.70;99.90;;;;;;5058244;28;20431;-42
2022/05/10 00:10:42;;;;;;;8.90;8.10;;;16.70;99.90;;;;;;5069255;28;20467;-42
2022/05/10 00:13:08;;;;;;;8.17;7.40;;;16.70;99.90;;;;;;5069867;28;20530;-42
2022/05/10 00:15:35;;;;;;;7.20;6.60;;;16.60;99.90;;;;;;5070067;28;20704;-42
2022/05/10 00:18:01;;;;;;;7.40;6.80;;;16.60;99.90;;;;;;5069774;28;20532;-42
2022/05/10 00:20:27;;;;;;;8.43;7.70;;;16.60;99.90;;;;;;5067946;28;20512;-42
2022/05/10 00:22:53;;;;;;;7.60;6.90;;;16.70;99.90;;;;;;5068224;28;21291;-43
2022/05/10 00:25:25;;;;;;;7.73;7.03;;;16.70;99.90;;;;;;5069693;28;20411;-42
2022/05/10 00:27:51;;;;;;;7.00;6.40;;;16.80;99.90;;;;;;5057019;28;20442;-43
2022/05/10 00:30:17;;;;;;;7.57;6.80;;;16.90;99.90;;;;;;5068881;28;20463;-43
2022/05/10 00:32:43;;;;;;;7.50;6.80;;;16.90;99.90;;;;;;5069569;28;20185;-42
2022/05/10 00:35:18;;;;;;;7.80;7.20;;;16.90;99.90;;;;;;5069362;28;20473;-42
2022/05/10 00:37:45;;;;;;;7.60;6.90;;;16.90;99.90;;;;;;5061342;28;20432;-42
2022/05/10 00:40:14;;;;;;;7.77;6.93;;;16.80;99.90;;;;;;5070404;28;20415;-42
2022/05/10 00:43:14;;;;;;;7.73;7.00;;;16.80;99.90;;;;;;5069085;28;20755;-42
2022/05/10 00:45:52;;;;;;;8.13;7.33;;;16.80;99.90;;;;;;5069243;28;20417;-42
2022/05/10 00:48:33;;;;;;;7.63;7.00;;;16.70;99.90;;;;;;5069031;28;20490;-42
2022/05/10 00:51:19;;;;;;;7.47;6.80;;;16.70;99.90;;;;;;5068723;28;20472;-42
2022/05/10 00:54:00;;;;;;;8.07;7.27;;;16.60;99.90;;;;;;5060531;28;20450;-43
2022/05/10 00:56:43;;;;;;;8.33;7.30;;;16.60;99.90;;;;;;5067743;28;20838;-42
2022/05/10 00:59:18;;;;;;;7.10;6.50;;;16.60;99.90;;;;;;5068737;28;20415;-43
2022/05/10 01:01:47;;;;;;;8.57;7.63;;;16.50;99.90;;;;;;5066479;28;20426;-42
2022/05/10 01:04:20;;;;;;;11.23;7.47;;;16.60;99.90;;;;;;5068883;28;20422;-43
2022/05/10 01:07:15;;;;;;;9.90;7.50;;;16.60;99.90;;;;;;5062622;28;20861;-43
2022/05/10 01:09:46;;;;;;;7.93;7.23;;;16.50;99.90;;;;;;5067815;28;20494;-42
2022/05/10 01:12:41;;;;;;;7.30;6.70;;;16.50;99.90;;;;;;5069056;28;20434;-42
2022/05/10 01:15:12;;;;;;;7.20;6.60;;;16.50;99.90;;;;;;5069001;28;20415;-42
2022/05/10 01:17:38;;;;;;;7.57;6.80;;;16.50;99.90;;;;;;5069113;28;20411;-42
2022/05/10 01:20:09;;;;;;;7.10;6.50;;;16.50;99.90;;;;;;5068165;28;20432;-42
2022/05/10 01:23:02;;;;;;;7.13;6.53;;;16.50;99.90;;;;;;5062039;28;20439;-41
2022/05/10 01:26:01;;;;;;;7.17;6.57;;;16.60;99.90;;;;;;5068354;28;20518;-42
2022/05/10 01:28:39;;;;;;;6.83;6.13;;;16.50;99.90;;;;;;5068556;28;20841;-42
2022/05/10 01:31:25;;;;;;;7.03;6.43;;;16.60;99.90;;;;;;5067175;28;20458;-42
2022/05/10 01:33:58;;;;;;;7.03;6.43;;;16.60;99.90;;;;;;5068006;28;20423;-42
2022/05/10 01:36:24;;;;;;;8.77;6.40;;;16.60;99.90;;;;;;5067935;28;20476;-42
2022/05/10 01:38:57;;;;;;;7.13;6.50;;;16.60;99.90;;;;;;5055516;28;20499;-42
2022/05/10 01:41:31;;;;;;;8.17;6.50;;;16.50;99.90;;;;;;5067196;28;20510;-42
2022/05/10 01:44:16;;;;;;;7.70;7.00;;;16.60;99.90;;;;;;5054633;28;20419;-42
2022/05/10 01:46:44;;;;;;;7.20;6.70;;;16.60;99.90;;;;;;5068191;28;20431;-42
2022/05/10 01:49:29;;;;;;;8.10;7.40;;;16.50;99.90;;;;;;5068471;28;20418;-42
2022/05/10 01:52:06;;;;;;;6.93;6.43;;;16.50;99.90;;;;;;5064135;28;20422;-42
2022/05/10 01:54:41;;;;;;;7.33;6.70;;;16.50;99.90;;;;;;5061413;28;20415;-43
2022/05/10 01:57:13;;;;;;;7.20;6.60;;;16.50;99.90;;;;;;5067435;28;20469;-43
2022/05/10 01:59:45;;;;;;;6.90;6.30;;;16.50;99.90;;;;;;5067432;28;20419;-43
2022/05/10 02:02:12;;;;;;;7.20;6.60;;;16.50;99.90;;;;;;5066187;28;20430;-43
2022/05/10 02:04:40;;;;;;;6.93;6.20;;;16.60;99.90;;;;;;5050620;28;20419;-42
2022/05/10 02:07:16;;;;;;;7.40;6.80;;;16.60;99.90;;;;;;5064664;28;20436;-42
2022/05/10 02:10:03;;;;;;;7.10;6.50;;;16.60;99.90;;;;;;5059932;28;20504;-42
2022/05/10 02:12:40;;;;;;;7.70;6.90;;;16.60;99.90;;;;;;5071236;28;21136;-42
2022/05/10 02:15:46;;;;;;;8.57;7.80;;;16.60;99.90;;;;;;5072288;28;20460;-43
2022/05/10 02:18:22;;;;;;;7.10;6.60;;;16.60;99.90;;;;;;5029314;28;20927;-42
2022/05/10 02:21:16;;;;;;;7.03;6.33;;;16.60;99.90;;;;;;4994879;28;21014;-42
2022/05/10 02:24:08;;;;;;;7.10;6.47;;;16.60;99.90;;;;;;5049776;28;20447;-43
2022/05/10 02:26:49;;;;;;;7.40;6.70;;;16.60;99.90;;;;;;5071585;28;20465;-42
2022/05/10 02:29:28;;;;;;;7.13;6.47;;;16.60;99.90;;;;;;5071882;28;20415;-42
2022/05/10 02:34:54;;;;;;;8.90;6.60;;;16.60;99.90;;;;;;5071966;28;20411;-42
2022/05/10 02:37:20;;;;;;;7.93;7.27;;;16.60;99.90;;;;;;5068545;28;20470;-42
2022/05/10 02:39:46;;;;;;;7.30;6.70;;;16.50;99.90;;;;;;5066245;28;20449;-43
2022/05/10 02:42:18;;;;;;;8.03;7.43;;;16.50;99.90;;;;;;5071357;28;20620;-42
2022/05/10 02:44:44;;;;;;;6.90;6.40;;;16.40;99.90;;;;;;5071754;28;20965;-42
2022/05/10 02:47:10;;;;;;;7.97;7.27;;;16.40;99.90;;;;;;5071472;28;20431;-42
2022/05/10 02:49:38;;;;;;;7.70;7.10;;;16.30;99.90;;;;;;5071103;28;20213;-42
2022/05/10 02:52:05;;;;;;;6.93;6.33;;;16.30;99.90;;;;;;5071340;28;20514;-43
2022/05/10 02:54:30;;;;;;;6.70;6.10;;;16.30;99.90;;;;;;5062954;28;20427;-43
2022/05/10 02:56:59;;;;;;;13.87;6.50;;;16.30;99.90;;;;;;5071216;28;20489;-42
2022/05/10 02:59:29;;;;;;;7.40;6.70;;;16.30;99.90;;;;;;5071396;28;20193;-42
2022/05/10 03:02:12;;;;;;;7.60;7.00;;;16.30;99.90;;;;;;5070915;28;20431;-42
2022/05/10 03:04:42;;;;;;;7.57;6.97;;;16.30;99.90;;;;;;5069910;28;20419;-42
2022/05/10 03:07:09;;;;;;;7.50;6.90;;;16.30;99.90;;;;;;5071237;28;20420;-43
2022/05/10 03:09:35;;;;;;;7.43;6.63;;;16.30;99.90;;;;;;5063458;28;21101;-42
2022/05/10 03:12:06;;;;;;;7.50;6.90;;;16.40;99.90;;;;;;5070988;28;21321;-43
2022/05/10 03:14:32;;;;;;;7.37;6.77;;;16.30;99.90;;;;;;5071072;28;20451;-42
2022/05/10 03:16:58;;;;;;;7.20;6.50;;;16.30;99.90;;;;;;5071041;28;20939;-42
2022/05/10 03:19:24;;;;;;;7.40;6.87;;;16.30;99.90;;;;;;5070865;28;20499;-43
2022/05/10 03:21:50;;;;;;;7.90;7.30;;;16.30;99.90;;;;;;5068653;28;20188;-42
2022/05/10 03:24:16;;;;;;;6.90;6.30;;;16.30;99.90;;;;;;5060031;28;20250;-43
2022/05/10 03:26:46;;;;;;;8.00;7.37;;;16.20;99.90;;;;;;5070568;28;20419;-42
2022/05/10 03:29:13;;;;;;;8.43;7.70;;;16.30;99.90;;;;;;5070864;28;20909;-42
2022/05/10 03:31:38;;;;;;;7.70;6.90;;;16.20;99.90;;;;;;5069909;28;20521;-43
2022/05/10 03:36:48;;;;;;;8.03;7.30;;;16.20;99.90;;;;;;5070807;28;20185;-42
2022/05/10 03:39:14;;;;;;;7.33;6.83;;;16.30;99.90;;;;;;5060368;28;20444;-42
2022/05/10 03:41:41;;;;;;;8.40;7.60;;;16.30;99.90;;;;;;5082899;28;20656;-42
2022/05/10 03:44:07;;;;;;;7.90;7.30;;;16.20;99.90;;;;;;5086226;28;20193;-42
2022/05/10 03:46:33;;;;;;;7.90;7.10;;;16.20;99.90;;;;;;5070344;28;20430;-42
2022/05/10 03:48:59;;;;;;;8.57;7.37;;;16.20;99.90;;;;;;5070396;28;20189;-43
2022/05/10 03:51:25;;;;;;;8.83;8.03;;;16.10;99.90;;;;;;5069652;28;20209;-43
2022/05/10 03:53:51;;;;;;;8.27;7.57;;;16.10;99.90;;;;;;5058380;28;20488;-42
2022/05/10 03:56:16;;;;;;;8.40;7.60;;;16.10;99.90;;;;;;5065092;28;20266;-43
2022/05/10 03:58:42;;;;;;;8.03;7.20;;;16.10;99.90;;;;;;5070202;28;20219;-42
2022/05/10 04:01:08;;;;;;;8.27;7.57;;;16.20;99.90;;;;;;5069279;28;20187;-42
2022/05/10 04:03:35;;;;;;;8.23;7.53;;;16.10;99.90;;;;;;5070010;28;20192;-42
2022/05/10 04:06:01;;;;;;;7.57;6.97;;;16.10;99.90;;;;;;5070000;28;20273;-42
2022/05/10 04:08:27;;;;;;;9.13;7.73;;;16.20;99.90;;;;;;5063259;28;20528;-43
2022/05/10 04:10:53;;;;;;;8.23;7.43;;;16.20;99.90;;;;;;5066501;28;20556;-42
2022/05/10 04:13:19;;;;;;;7.70;7.10;;;16.20;99.90;;;;;;5069893;28;20427;-42
2022/05/10 04:15:44;;;;;;;8.20;7.60;;;16.20;99.90;;;;;;5068415;28;20922;-42
2022/05/10 04:18:10;;;;;;;7.50;6.90;;;16.30;99.90;;;;;;5067945;28;20680;-42
2022/05/10 04:20:36;;;;;;;9.03;7.40;;;16.20;99.90;;;;;;5067465;28;20548;-42
2022/05/10 04:23:02;;;;;;;9.43;8.50;;;16.20;99.90;;;;;;5066861;28;20238;-42
2022/05/10 04:25:27;;;;;;;8.20;7.40;;;16.30;99.90;;;;;;5058762;28;20189;-42
2022/05/10 04:27:54;;;;;;;8.23;7.63;;;16.30;99.90;;;;;;5069199;28;20192;-43
2022/05/10 04:30:21;;;;;;;8.20;7.50;;;16.20;99.90;;;;;;5068955;28;20243;-42
2022/05/10 04:32:47;;;;;;;8.57;7.93;;;16.20;99.90;;;;;;5067742;28;20851;-42
2022/05/10 04:35:13;;;;;;;8.73;7.83;;;16.20;99.90;;;;;;5069656;28;20416;-42
2022/05/10 04:37:39;;;;;;;8.23;7.60;;;16.20;99.90;;;;;;5069444;28;20484;-43
2022/05/10 04:42:52;;;;;;;9.10;8.30;;;16.20;99.90;;;;;;5069060;28;20442;-42
2022/05/10 04:45:18;;;;;;;8.53;7.73;;;16.10;99.90;;;;;;5069245;28;20435;-43
2022/05/10 04:47:44;;;;;;;8.00;7.30;;;16.10;99.90;;;;;;5069318;28;20467;-43
2022/05/10 04:50:10;;;;;;;8.83;7.90;;;16.10;99.90;;;;;;5068480;28;20490;-43
2022/05/10 04:52:36;;;;;;;8.30;7.60;;;16.10;99.90;;;;;;5069303;28;20185;-42
2022/05/10 04:55:03;;;;;;;8.07;7.47;;;16.10;99.90;;;;;;5056669;28;20459;-43
2022/05/10 04:57:29;;;;;;;8.73;7.87;;;16.10;99.90;;;;;;5069020;28;20447;-42
2022/05/10 04:59:55;;;;;;;7.93;7.23;;;16.10;99.90;;;;;;5068292;28;20488;-42
2022/05/10 05:02:20;;;;;;;7.43;6.73;;;16.10;99.90;;;;;;5069375;28;20423;-42
2022/05/10 05:04:46;;;;;;;8.50;7.80;;;16.10;99.90;;;;;;5069097;28;20188;-42
2022/05/10 05:07:11;;;;;;;8.93;8.10;;;16.10;99.90;;;;;;5069078;28;20840;-42
2022/05/10 05:09:37;;;;;;;8.40;7.60;;;16.10;99.90;;;;;;5058933;28;20675;-42
2022/05/10 05:12:04;;;;;;;8.70;7.90;;;16.00;99.90;;;;;;5068904;28;20180;-42
2022/05/10 05:14:31;;;;;;;7.70;7.10;;;16.00;99.90;;;;;;5063709;28;20618;-42
2022/05/10 05:16:58;;;;;;;8.47;7.57;;;16.00;99.90;;;;;;5064439;28;20446;-42
2022/05/10 05:19:23;;;;;;;8.10;7.40;;;16.00;99.90;;;;;;5071088;28;20449;-42
2022/05/10 05:21:49;;;;;;;8.53;7.73;;;16.00;99.90;;;;;;5069044;28;20423;-43
2022/05/10 05:24:15;;;;;;;7.87;7.17;;;16.10;99.90;;;;;;5058129;28;20196;-42
2022/05/10 05:26:40;;;;;;;8.47;7.67;;;16.10;99.90;;;;;;5056204;28;20194;-42
2022/05/10 05:29:06;;;;;;;9.13;7.63;;;16.10;99.90;;;;;;5067601;28;20193;-42
2022/05/10 05:31:33;;;;;;;7.23;6.53;;;16.10;99.90;;;;;;5066604;28;20224;-42
2022/05/10 05:33:58;;;;;;;8.10;7.40;;;16.10;99.90;;;;;;5068883;28;20210;-42
2022/05/10 05:36:24;;;;;;;8.10;7.40;;;16.10;99.90;;;;;;5068740;28;20424;-42
2022/05/10 05:38:50;;;;;;;15.63;8.40;;;16.10;99.90;;;;;;5063614;28;20197;-43
2022/05/10 05:41:17;;;;;;;9.47;8.53;;;16.20;99.90;;;;;;5065279;28;20461;-42
2022/05/10 05:43:44;;;;;;;7.80;7.20;;;16.20;99.90;;;;;;5075890;28;20425;-43
2022/05/10 05:46:09;;;;;;;8.20;7.50;;;16.30;99.90;;;;;;5075167;28;20443;-42
2022/05/10 05:48:35;;;;;;;8.13;7.43;;;16.30;99.90;;;;;;5072338;28;20427;-42
2022/05/10 05:51:01;;;;;;;8.27;7.67;;;16.40;99.90;;;;;;5071802;28;20220;-42
2022/05/10 05:53:26;;;;;;;8.23;7.53;;;16.40;99.90;;;;;;5070989;28;20196;-42
2022/05/10 05:55:58;;;;;;;8.77;7.97;;;16.40;99.90;;;;;;5062721;28;20187;-43
2022/05/10 05:58:24;;;;;;;8.40;7.70;;;16.50;99.90;;;;;;5076216;28;20970;-42
2022/05/10 06:00:49;;;;;;;8.53;7.83;;;16.50;99.90;;;;;;5071980;28;20502;-42
2022/05/10 06:03:15;;;;;;;8.83;8.13;;;16.50;99.90;;;;;;5070633;28;20220;-42
2022/05/10 06:05:41;;;;;;;9.00;7.63;;;16.50;99.90;;;;;;5072517;28;20193;-42
2022/05/10 06:08:09;;;;;;;8.37;7.70;;;16.60;99.90;;;;;;5072261;28;20242;-42
2022/05/10 06:10:35;;;;;;;8.73;7.83;;;16.60;99.90;;;;;;5064176;28;20243;-43
2022/05/10 06:13:01;;;;;;;8.73;7.90;;;16.70;99.90;;;;;;5071070;28;20450;-42
2022/05/10 06:15:27;;;;;;;9.40;8.50;;;16.70;99.90;;;;;;5072367;28;20421;-43
2022/05/10 06:17:53;;;;;;;10.03;8.27;;;16.90;99.90;;;;;;5071857;28;20431;-42
2022/05/10 06:20:21;;;;;;;8.80;7.93;;;17.10;99.90;;;;;;5068414;28;20435;-42
2022/05/10 06:22:47;;;;;;;9.30;8.50;;;17.30;99.90;;;;;;5071724;28;20720;-41
2022/05/10 06:25:19;;;;;;;9.23;8.40;;;17.50;99.90;;;;;;5065782;28;20430;-42
2022/05/10 06:27:46;;;;;;;8.63;7.93;;;17.70;99.90;;;;;;5071292;28;20431;-42
2022/05/10 06:30:12;;;;;;;12.33;7.87;;;17.90;99.90;;;;;;5071504;28;20463;-43
2022/05/10 06:32:38;;;;;;;9.60;7.23;;;18.10;99.90;;;;;;5070527;28;20484;-42
2022/05/10 06:35:05;;;;;;;11.57;8.20;;;18.20;99.90;;;;;;5071838;28;20429;-43
2022/05/10 06:40:17;;;;;;;8.13;7.50;;;18.40;99.90;;;;;;5062105;28;20922;-43
2022/05/10 06:42:43;;;;;;;8.80;8.10;;;18.50;99.90;;;;;;5071686;28;20415;-43
2022/05/10 06:45:13;;;;;;;14.47;8.73;;;18.50;99.90;;;;;;5071582;28;20430;-43
2022/05/10 06:47:40;;;;;;;9.50;8.20;;;18.50;99.90;;;;;;5075495;28;20418;-42
2022/05/10 06:50:09;;;;;;;8.80;8.00;;;18.50;99.90;;;;;;5080907;28;20459;-43
2022/05/10 06:52:35;;;;;;;8.07;7.37;;;18.60;99.90;;;;;;5076592;28;20445;-43
2022/05/10 06:55:00;;;;;;;8.10;7.40;;;18.60;99.90;;;;;;5080652;28;20923;-43
2022/05/10 06:57:26;;;;;;;9.00;8.10;;;18.40;99.90;;;;;;5066175;28;20193;-42
2022/05/10 06:59:54;;;;;;;8.43;7.50;;;18.50;99.90;;;;;;5070471;28;20221;-43
2022/05/10 07:02:21;;;;;;;8.83;8.03;;;18.60;99.90;;;;;;5076453;28;20185;-43
2022/05/10 07:04:46;;;;;;;8.67;7.93;;;18.70;99.90;;;;;;5072902;28;20434;-42
2022/05/10 07:07:12;;;;;;;8.97;8.07;;;18.80;99.90;;;;;;5073152;28;20423;-42
2022/05/10 07:09:37;;;;;;;8.90;7.97;;;19.00;99.90;;;;;;5073730;28;20716;-42
2022/05/10 07:12:04;;;;;;;8.00;7.20;;;19.10;99.90;;;;;;5078026;28;20192;-43
2022/05/10 07:14:29;;;;;;;8.23;7.53;;;19.10;99.90;;;;;;5084403;28;20188;-43
2022/05/10 07:16:56;;;;;;;9.27;8.47;;;19.20;99.90;;;;;;5078603;28;21183;-42
2022/05/10 07:19:22;;;;;;;8.40;7.70;;;19.20;99.90;;;;;;5070898;28;20310;-42
2022/05/10 07:21:50;;;;;;;8.30;7.50;;;19.30;99.90;;;;;;5070388;28;20562;-43
2022/05/10 07:24:19;;;;;;;7.73;7.03;;;19.50;99.90;;;;;;5067591;28;20435;-42
2022/05/10 07:26:45;;;;;;;8.40;7.60;;;19.60;99.90;;;;;;5065962;28;20564;-41
2022/05/10 07:29:13;;;;;;;8.80;7.90;;;19.60;99.90;;;;;;5070905;28;20428;-43
2022/05/10 07:31:39;;;;;;;7.97;7.27;;;19.80;99.90;;;;;;5070119;28;20825;-43
2022/05/10 07:34:05;;;;;;;9.20;7.60;;;19.90;99.90;;;;;;5070610;28;20459;-42
2022/05/10 07:36:33;;;;;;;9.23;7.50;;;20.00;99.90;;;;;;5089982;28;20414;-43
2022/05/10 07:39:08;;;;;;;7.83;7.03;;;20.10;99.90;;;;;;5079882;28;21217;-42
2022/05/10 07:41:34;;;;;;;8.17;7.50;;;20.20;99.90;;;;;;5074220;28;20469;-42
2022/05/10 07:44:00;;;;;;;10.40;7.70;;;20.30;99.90;;;;;;5071258;28;20466;-43
2022/05/10 07:46:26;;;;;;;7.80;7.00;;;20.30;99.90;;;;;;5070105;28;20447;-42
2022/05/10 07:48:52;;;;;;;7.27;6.57;;;20.40;99.90;;;;;;5070539;28;20453;-42
2022/05/10 07:51:19;;;;;;;9.27;7.00;;;20.40;99.90;;;;;;5069608;28;20608;-42
2022/05/10 07:53:45;;;;;;;6.67;6.07;;;20.50;99.90;;;;;;5070484;28;20241;-42
2022/05/10 07:56:11;;;;;;;7.90;7.10;;;20.60;99.90;;;;;;5059482;28;20530;-43
2022/05/10 07:58:37;;;;;;;7.80;7.10;;;20.70;99.90;;;;;;5070263;28;20560;-42
2022/05/10 08:01:04;;;;;;;7.30;6.60;;;20.70;99.90;;;;;;5069395;28;20289;-42
2022/05/10 08:03:30;;;;;;;9.20;7.13;;;20.80;99.90;;;;;;5070426;28;20216;-42
2022/05/10 08:05:59;;;;;;;8.10;7.30;;;20.80;99.90;;;;;;5070230;28;20427;-42
2022/05/10 08:08:26;;;;;;;7.80;7.10;;;20.80;99.90;;;;;;5069923;28;20423;-42
2022/05/10 08:10:56;;;;;;;9.10;7.77;;;20.90;99.90;;;;;;5059818;28;20478;-42
2022/05/10 08:13:25;;;;;;;8.17;7.47;;;20.90;99.90;;;;;;5069872;28;20443;-42
2022/05/10 08:15:51;;;;;;;6.93;6.23;;;20.90;99.90;;;;;;5069885;28;20427;-42
2022/05/10 08:18:19;;;;;;;9.20;7.53;;;21.00;99.90;;;;;;5069823;28;20955;-43
2022/05/10 08:20:45;;;;;;;8.53;7.23;;;21.00;99.90;;;;;;5069285;28;20506;-42
2022/05/10 08:23:22;;;;;;;7.87;7.07;;;21.10;99.90;;;;;;5069654;28;20938;-42
2022/05/10 08:25:49;;;;;;;7.17;6.50;;;21.10;99.90;;;;;;5062179;28;20431;-42
2022/05/10 08:28:15;;;;;;;7.10;6.57;;;21.20;99.90;;;;;;5069382;28;21251;-43
2022/05/10 08:30:42;;;;;;;7.87;7.07;;;21.30;99.90;;;;;;5067798;28;20471;-42
2022/05/10 08:33:10;;;;;;;7.17;6.47;;;21.40;99.90;;;;;;5069587;28;20217;-42
2022/05/10 08:35:37;;;;;;;6.97;6.30;;;21.40;99.90;;;;;;5069677;28;20495;-42
2022/05/10 08:38:03;;;;;;;7.00;6.40;;;21.50;99.90;;;;;;5067374;28;20411;-43
2022/05/10 08:40:40;;;;;;;6.90;6.30;;;21.50;99.90;;;;;;5070681;28;20448;-42
2022/05/10 08:43:13;;;;;;;7.07;6.37;;;21.60;99.90;;;;;;5062878;28;20764;-43
2022/05/10 08:45:42;;;;;;;6.33;5.90;;;21.70;99.90;;;;;;5069496;28;20415;-43
2022/05/10 08:48:08;;;;;;;6.40;5.80;;;21.80;99.50;;;;;;5069169;28;20462;-43
2022/05/10 08:50:35;;;;;;;7.00;6.40;;;21.90;98.90;;;;;;5068824;28;20535;-43
2022/05/10 08:53:01;;;;;;;6.17;5.50;;;22.00;98.50;;;;;;5066824;28;20181;-42
2022/05/10 08:55:30;;;;;;;7.10;6.50;;;22.00;98.50;;;;;;5061637;28;20459;-43
2022/05/10 08:58:35;;;;;;;6.20;5.70;;;22.10;97.30;;;;;;5064280;28;20201;-43
2022/05/10 09:01:06;;;;;;;6.03;5.63;;;22.20;97.80;;;;;;5061718;28;20433;-42
2022/05/10 09:03:58;;;;;;;6.63;5.90;;;22.30;97.90;;;;;;5065531;28;20842;-43
2022/05/10 09:06:27;;;;;;;6.27;5.67;;;22.50;97.90;;;;;;5068172;28;20507;-43
2022/05/10 09:09:09;;;;;;;6.30;5.70;;;22.60;96.70;;;;;;5069472;28;20425;-43
2022/05/10 09:12:04;;;;;;;28.57;8.00;;;22.70;96.80;;;;;;5057465;28;20478;-42
2022/05/10 09:14:34;;;;;;;19.27;8.53;;;22.80;96.00;;;;;;5064901;28;21162;-43
2022/05/10 09:17:02;;;;;;;5.40;5.00;;;22.80;96.20;;;;;;5058927;28;20426;-43
2022/05/10 09:19:39;;;;;;;5.77;5.37;;;22.90;95.90;;;;;;5068229;28;20427;-42
2022/05/10 09:22:44;;;;;;;6.37;5.80;;;22.90;95.60;;;;;;5066142;28;20450;-43
2022/05/10 09:25:32;;;;;;;5.93;5.40;;;23.00;95.50;;;;;;5063615;28;20539;-43
2022/05/10 09:28:01;;;;;;;5.93;5.43;;;23.10;95.20;;;;;;5060280;28;20419;-42
2022/05/10 09:30:32;;;;;;;6.97;6.03;;;23.20;95.10;;;;;;5068053;28;20469;-43
2022/05/10 09:36:01;;;;;;;6.60;6.00;;;23.40;95.80;;;;;;5069062;28;20813;-42
2022/05/10 09:38:27;;;;;;;7.17;6.40;;;23.60;95.70;;;;;;5068972;28;20428;-43
2022/05/10 09:40:53;;;;;;;6.30;5.70;;;23.80;96.00;;;;;;5075231;28;20694;-43
2022/05/10 09:43:22;;;;;;;11.50;5.87;;;24.00;94.50;;;;;;5064064;28;20419;-43
2022/05/10 09:46:19;;;;;;;11.33;5.10;;;24.10;94.30;;;;;;5067574;28;20234;-43
2022/05/10 09:48:46;;;;;;;6.17;5.67;;;24.30;92.50;;;;;;5068674;28;20424;-42
2022/05/10 09:51:36;;;;;;;6.03;5.53;;;24.40;92.50;;;;;;5067943;28;20461;-43
2022/05/10 09:54:17;;;;;;;7.63;5.90;;;24.50;92.60;;;;;;5068647;28;20426;-42
2022/05/10 09:56:44;;;;;;;7.60;5.20;;;24.40;91.90;;;;;;5062345;28;20559;-42
2022/05/10 09:59:28;;;;;;;6.10;5.60;;;24.40;91.50;;;;;;5068659;28;20517;-42
2022/05/10 10:01:58;;;;;;;6.07;5.37;;;24.40;91.80;;;;;;5053954;28;20504;-43
2022/05/10 10:04:34;;;;;;;5.67;5.13;;;24.40;92.10;;;;;;5068754;28;20453;-43
2022/05/10 10:07:21;;;;;;;5.70;5.23;;;24.50;91.60;;;;;;5068442;28;20492;-42
2022/05/10 10:09:55;;;;;;;5.57;5.07;;;24.70;92.00;;;;;;5067948;28;20496;-43
2022/05/10 10:12:39;;;;;;;5.60;5.10;;;24.80;92.70;;;;;;5059574;28;20533;-43
2022/05/10 10:15:28;;;;;;;5.47;4.97;;;24.90;90.90;;;;;;5061583;28;20416;-43
2022/05/10 10:18:28;;;;;;;6.80;4.60;;;24.90;89.20;;;;;;5068082;28;20504;-43
2022/05/10 10:20:57;;;;;;;6.77;5.63;;;25.00;89.60;;;;;;5066071;28;20430;-43
2022/05/10 10:23:31;;;;;;;5.57;5.13;;;24.90;90.10;;;;;;5068355;28;20419;-42
2022/05/10 10:26:20;;;;;;;6.23;5.63;;;25.00;89.50;;;;;;5062994;28;20433;-43
2022/05/10 10:29:07;;;;;;;5.53;5.13;;;24.90;89.70;;;;;;5060946;28;20491;-42
2022/05/10 10:31:40;;;;;;;6.70;6.10;;;24.90;90.00;;;;;;5067741;28;20459;-43
2022/05/10 10:34:10;;;;;;;8.13;5.47;;;24.80;90.10;;;;;;5070562;28;20472;-42
2022/05/10 10:36:45;;;;;;;7.00;6.30;;;24.80;91.50;;;;;;5069319;28;20423;-43
2022/05/10 10:39:23;;;;;;;8.83;5.83;;;24.80;91.00;;;;;;5077155;28;20453;-42
2022/05/10 10:42:12;;;;;;;7.40;6.70;;;24.80;91.10;;;;;;5068610;28;20431;-42
2022/05/10 10:44:43;;;;;;;6.90;6.40;;;24.80;90.40;;;;;;5071542;28;20824;-43
2022/05/10 10:47:44;;;;;;;9.57;5.90;;;24.80;90.20;;;;;;5071480;28;20427;-43
2022/05/10 10:50:19;;;;;;;9.27;6.97;;;24.80;90.80;;;;;;5080526;28;20462;-42
2022/05/10 10:52:45;;;;;;;6.10;5.60;;;24.80;90.80;;;;;;5091995;28;20422;-43
2022/05/10 10:55:11;;;;;;;7.57;6.60;;;24.80;91.10;;;;;;5091665;28;20430;-42
2022/05/10 10:57:45;;;;;;;7.63;6.80;;;24.80;91.00;;;;;;5063520;28;20205;-43
2022/05/10 11:00:13;;;;;;;7.17;6.50;;;24.70;90.60;;;;;;5064257;28;20185;-43
2022/05/10 11:03:00;;;;;;;8.50;6.60;;;24.70;91.00;;;;;;5070927;28;20451;-43
2022/05/10 11:06:03;;;;;;;7.63;6.80;;;24.60;91.40;;;;;;5071444;28;20841;-42
2022/05/10 11:08:39;;;;;;;7.30;6.70;;;24.60;90.90;;;;;;5059499;28;20480;-43
2022/05/10 11:11:19;;;;;;;6.97;6.27;;;24.50;91.40;;;;;;5065835;28;20510;-43
2022/05/10 11:13:58;;;;;;;7.97;7.27;;;24.50;91.70;;;;;;5069641;28;20454;-43
2022/05/10 11:16:45;;;;;;;6.40;5.87;;;24.40;90.80;;;;;;5064395;28;20955;-43
2022/05/10 11:19:32;;;;;;;6.50;5.90;;;24.30;91.80;;;;;;5071300;28;20758;-43
2022/05/10 11:22:31;;;;;;;6.77;6.10;;;24.30;91.10;;;;;;5069262;28;20423;-44
2022/05/10 11:25:06;;;;;;;6.17;5.70;;;24.30;90.70;;;;;;5071170;28;20447;-43
2022/05/10 11:27:55;;;;;;;6.30;5.80;;;24.30;90.30;;;;;;5057262;28;20492;-43
2022/05/10 11:30:24;;;;;;;7.30;5.10;;;24.30;90.10;;;;;;5065645;28;20554;-42
2022/05/10 11:33:06;;;;;;;6.33;5.80;;;24.30;90.50;;;;;;5070887;28;20424;-43
2022/05/10 11:36:01;;;;;;;7.20;5.27;;;24.20;87.30;;;;;;5070668;28;20469;-43
2022/05/10 11:38:54;;;;;;;5.30;4.80;;;24.20;89.30;;;;;;5051712;28;20458;-43
2022/05/10 11:41:42;;;;;;;5.50;5.10;;;24.20;89.00;;;;;;5069933;28;20463;-43
2022/05/10 11:44:21;;;;;;;5.70;5.00;;;24.20;88.40;;;;;;5062271;28;20439;-43
2022/05/10 11:47:24;;;;;;;5.80;5.30;;;24.20;89.50;;;;;;5067757;28;20446;-43
2022/05/10 11:50:17;;;;;;;5.90;5.30;;;24.20;88.70;;;;;;5068634;28;20910;-43
2022/05/10 11:53:16;;;;;;;5.80;4.80;;;24.30;87.80;;;;;;5066982;28;20445;-44
2022/05/10 11:55:57;;;;;;;6.90;4.73;;;24.40;84.70;;;;;;5061346;28;20499;-43
2022/05/10 11:58:27;;;;;;;6.63;5.23;;;24.50;85.30;;;;;;5058515;28;20592;-43
2022/05/10 12:00:55;;;;;;;5.17;4.77;;;24.60;86.10;;;;;;5069668;28;20512;-45
2022/05/10 12:03:36;;;;;;;7.17;4.93;;;24.70;86.20;;;;;;5075786;28;20431;-42
2022/05/10 12:06:22;;;;;;;5.47;4.97;;;24.70;86.60;;;;;;5063928;28;20981;-43
2022/05/10 12:08:49;;;;;;;5.27;4.77;;;24.80;88.30;;;;;;5053692;28;20440;-43
2022/05/10 12:11:27;;;;;;;6.20;5.60;;;24.80;86.80;;;;;;5049680;28;20471;-42
2022/05/10 12:22:16;;;;;;;5.40;4.90;;;25.20;82.70;;;;;;5068291;28;20481;-43
2022/05/10 12:24:45;;;;;;;5.83;5.33;;;25.30;82.90;;;;;;5070049;28;20522;-43
2022/05/10 12:27:11;;;;;;;7.70;5.67;;;25.30;82.80;;;;;;5063307;28;20427;-43
2022/05/10 12:29:40;;;;;;;5.40;4.90;;;25.40;85.30;;;;;;5069440;28;20878;-43
2022/05/10 12:32:17;;;;;;;5.07;4.57;;;25.50;80.50;;;;;;5069479;28;20214;-43
2022/05/10 12:34:56;;;;;;;5.53;4.90;;;25.50;80.50;;;;;;5069999;28;20419;-42
2022/05/10 12:37:35;;;;;;;4.90;4.50;;;25.40;77.40;;;;;;5069512;28;20459;-43
2022/05/10 12:40:10;;;;;;;5.50;4.80;;;25.40;76.70;;;;;;5084143;28;20517;-42
2022/05/10 12:42:44;;;;;;;4.80;4.33;;;25.40;79.20;;;;;;5065397;28;20431;-43
2022/05/10 12:45:15;;;;;;;5.73;4.90;;;25.40;79.30;;;;;;5069426;28;20913;-43
2022/05/10 12:48:02;;;;;;;5.13;4.67;;;25.50;79.40;;;;;;5069261;28;20825;-43
2022/05/10 12:50:35;;;;;;;5.67;5.10;;;25.50;79.60;;;;;;5068724;28;20881;-43
2022/05/10 12:53:01;;;;;;;7.53;5.30;;;25.50;79.90;;;;;;5069248;28;20423;-42
2022/05/10 12:55:33;;;;;;;5.97;5.07;;;25.50;82.00;;;;;;5068573;28;20420;-43
2022/05/10 12:58:22;;;;;;;5.90;4.90;;;25.60;80.10;;;;;;5056938;28;20776;-43
2022/05/10 13:00:55;;;;;;;5.63;5.00;;;25.50;77.50;;;;;;5067514;28;20425;-40
2022/05/10 13:03:29;;;;;;;7.60;4.77;;;25.40;77.10;;;;;;5068907;28;20848;-42
2022/05/10 13:06:22;;;;;;;5.70;5.10;;;25.40;78.70;;;;;;5069133;28;20509;-43
2022/05/10 13:09:02;;;;;;;6.83;5.67;;;25.40;78.10;;;;;;5069225;28;20511;-43
2022/05/10 13:11:37;;;;;;;7.23;4.60;;;25.30;78.60;;;;;;5064997;28;20509;-43
2022/05/10 13:14:04;;;;;;;5.90;5.00;;;25.30;80.20;;;;;;5068941;28;20484;-43
2022/05/10 13:16:30;;;;;;;5.23;4.70;;;25.30;79.20;;;;;;5069188;28;20423;-43
2022/05/10 13:18:56;;;;;;;8.20;5.60;;;25.20;79.20;;;;;;5069014;28;20421;-42
2022/05/10 13:21:25;;;;;;;5.70;5.20;;;25.20;78.50;;;;;;5067011;28;20942;-42
2022/05/10 13:23:53;;;;;;;5.93;5.40;;;25.10;78.60;;;;;;5068753;28;20426;-43
2022/05/10 13:26:19;;;;;;;7.47;5.67;;;25.00;78.90;;;;;;5067857;28;20427;-43
2022/05/10 13:29:00;;;;;;;7.17;5.77;;;25.00;79.10;;;;;;5063977;28;20423;-43
2022/05/10 13:31:37;;;;;;;5.77;5.17;;;24.90;80.50;;;;;;5066819;28;20501;-43
2022/05/10 13:34:11;;;;;;;6.00;5.40;;;25.00;81.70;;;;;;5068939;28;20426;-42